Time;durP1;ratioP1;P1;durP2;ratioP2;P2;SDS_P1;SDS_P2;PMS_P1;PMS_P2;Temp;Humidity;BMP_temperature;BMP_pressure;BME280_temperature;BME280_humidity;BME280_pressure;Samples;Min_cycle;Max_cycle;Signal;HPM_P1;HPM_P2
2023/06/07 00:00:50;;;;;;;16.73;5.75;;;11.30;99.90;;;;;;5036746;28;20447;-59
2023/06/07 00:03:16;;;;;;;19.75;6.75;;;11.30;99.90;;;;;;5035891;28;20045;-59
2023/06/07 00:05:43;;;;;;;16.85;6.63;;;11.20;99.90;;;;;;5034786;28;20041;-59
2023/06/07 00:08:09;;;;;;;18.90;6.38;;;11.20;99.90;;;;;;5034430;28;20041;-60
2023/06/07 00:10:36;;;;;;;16.27;6.32;;;11.20;99.90;;;;;;5033345;28;20075;-57
2023/06/07 00:13:04;;;;;;;17.20;5.90;;;11.20;99.90;;;;;;5035167;28;20043;-60
2023/06/07 00:15:30;;;;;;;16.27;6.03;;;11.20;99.90;;;;;;5030921;28;20045;-60
2023/06/07 00:18:00;;;;;;;15.23;6.20;;;11.10;99.90;;;;;;5033460;28;20474;-58
2023/06/07 00:20:27;;;;;;;19.77;6.70;;;11.10;99.90;;;;;;5033508;28;20481;-59
2023/06/07 00:22:55;;;;;;;20.88;5.93;;;11.10;99.90;;;;;;5035024;28;20067;-59
2023/06/07 00:25:22;;;;;;;13.38;6.25;;;11.10;99.90;;;;;;5038990;28;20715;-59
2023/06/07 00:27:47;;;;;;;14.73;5.65;;;11.10;99.90;;;;;;5033585;28;20064;-59
2023/06/07 00:30:14;;;;;;;19.50;6.63;;;11.20;99.90;;;;;;5033588;28;20049;-60
2023/06/07 00:32:39;;;;;;;13.80;5.45;;;11.20;99.90;;;;;;5031761;28;20074;-59
2023/06/07 00:35:07;;;;;;;17.70;5.65;;;11.10;99.90;;;;;;5032655;28;20388;-59
2023/06/07 00:37:33;;;;;;;20.85;5.60;;;11.10;99.90;;;;;;5034039;28;20086;-58
2023/06/07 00:39:59;;;;;;;12.73;4.95;;;11.10;99.90;;;;;;5036479;28;20394;-59
2023/06/07 00:42:24;;;;;;;19.80;5.55;;;11.10;99.90;;;;;;5030302;28;20029;-58
2023/06/07 00:44:50;;;;;;;15.70;5.28;;;11.10;99.90;;;;;;5036198;28;20043;-60
2023/06/07 00:47:17;;;;;;;14.18;5.47;;;11.10;99.90;;;;;;5032375;28;20037;-59
2023/06/07 00:49:44;;;;;;;12.38;4.63;;;11.10;99.90;;;;;;5031736;28;20430;-60
2023/06/07 00:52:11;;;;;;;16.83;4.80;;;11.10;99.90;;;;;;5035528;28;20087;-59
2023/06/07 00:54:37;;;;;;;15.98;5.85;;;11.10;99.90;;;;;;5032395;28;20041;-60
2023/06/07 00:57:05;;;;;;;17.52;5.30;;;11.10;99.90;;;;;;5034630;28;20044;-58
2023/06/07 00:59:31;;;;;;;19.00;5.28;;;11.10;99.90;;;;;;5032838;28;24474;-58
2023/06/07 01:01:57;;;;;;;15.40;5.45;;;11.10;99.90;;;;;;5029136;28;20127;-58
2023/06/07 01:04:29;;;;;;;18.10;5.63;;;11.10;99.90;;;;;;5026431;28;20041;-58
2023/06/07 01:07:01;;;;;;;14.98;5.05;;;11.10;99.90;;;;;;5020206;28;20041;-58
2023/06/07 01:09:27;;;;;;;19.77;4.85;;;11.10;99.90;;;;;;5029204;28;20076;-59
2023/06/07 01:11:53;;;;;;;15.52;4.65;;;11.10;99.90;;;;;;5032264;28;20046;-59
2023/06/07 01:14:20;;;;;;;20.70;5.30;;;11.10;99.90;;;;;;5020735;28;20090;-59
2023/06/07 01:16:50;;;;;;;15.55;5.18;;;11.10;99.90;;;;;;5039814;28;20049;-59
2023/06/07 01:19:28;;;;;;;15.23;5.10;;;11.10;99.90;;;;;;5040030;28;20402;-60
2023/06/07 01:22:02;;;;;;;17.50;5.32;;;11.10;99.90;;;;;;5039803;28;20052;-57
2023/06/07 01:24:29;;;;;;;14.60;4.43;;;11.10;99.90;;;;;;5036892;28;20452;-60
2023/06/07 01:26:57;;;;;;;13.88;4.88;;;11.00;99.90;;;;;;5053727;28;20045;-59
2023/06/07 01:29:25;;;;;;;14.85;4.57;;;11.10;99.90;;;;;;5039131;28;20041;-60
2023/06/07 01:31:53;;;;;;;13.70;4.53;;;11.10;99.90;;;;;;5039135;28;20041;-60
2023/06/07 01:34:20;;;;;;;13.30;4.95;;;11.00;99.90;;;;;;5040777;28;20041;-60
2023/06/07 01:36:48;;;;;;;12.95;4.60;;;11.10;99.90;;;;;;5039703;28;20041;-60
2023/06/07 01:39:17;;;;;;;15.00;4.93;;;11.10;99.90;;;;;;5040494;28;20039;-59
2023/06/07 01:41:44;;;;;;;19.10;4.82;;;11.10;99.90;;;;;;5054366;28;20088;-59
2023/06/07 01:44:12;;;;;;;17.67;4.88;;;11.10;99.90;;;;;;5039747;28;20120;-60
2023/06/07 01:46:39;;;;;;;15.80;4.53;;;11.10;99.90;;;;;;5037126;28;20045;-57
2023/06/07 01:49:06;;;;;;;16.50;4.53;;;11.10;99.90;;;;;;5040911;28;20164;-59
2023/06/07 01:51:32;;;;;;;11.93;4.30;;;11.10;99.90;;;;;;5039732;28;20033;-60
2023/06/07 01:53:59;;;;;;;15.23;5.20;;;11.10;99.90;;;;;;5036993;28;20167;-58
2023/06/07 01:56:51;;;;;;;14.13;5.50;;;11.10;99.90;;;;;;5036105;28;20111;-59
2023/06/07 01:59:22;;;;;;;13.23;4.65;;;11.10;99.90;;;;;;5039431;28;20032;-60
2023/06/07 02:02:04;;;;;;;19.35;4.90;;;11.10;99.90;;;;;;5037986;28;20048;-59
2023/06/07 02:04:34;;;;;;;17.42;5.53;;;11.10;99.90;;;;;;5037550;28;20040;-60
2023/06/07 02:07:05;;;;;;;16.33;4.97;;;11.10;99.90;;;;;;5030041;28;20069;-60
2023/06/07 02:09:35;;;;;;;15.85;4.80;;;11.10;99.90;;;;;;5032030;28;20067;-57
2023/06/07 02:12:02;;;;;;;17.40;4.97;;;11.20;99.90;;;;;;5035467;28;20094;-60
2023/06/07 02:14:29;;;;;;;16.75;5.22;;;11.20;99.90;;;;;;5036180;28;20029;-59
2023/06/07 02:16:55;;;;;;;16.88;4.88;;;11.20;99.90;;;;;;5035377;28;20033;-58
2023/06/07 02:19:24;;;;;;;16.17;5.03;;;11.20;99.90;;;;;;5035961;28;20122;-60
2023/06/07 02:21:50;;;;;;;18.58;5.00;;;11.20;99.90;;;;;;5034206;28;20034;-59
2023/06/07 02:24:17;;;;;;;13.00;4.60;;;11.20;99.90;;;;;;5035901;28;20052;-59
2023/06/07 02:26:43;;;;;;;19.30;5.28;;;11.20;99.90;;;;;;5033854;28;20037;-59
2023/06/07 02:29:09;;;;;;;11.23;4.25;;;11.20;99.90;;;;;;5037039;28;20045;-59
2023/06/07 02:31:35;;;;;;;13.52;4.95;;;11.30;99.90;;;;;;5037759;28;20037;-58
2023/06/07 02:34:00;;;;;;;18.15;5.43;;;11.30;99.90;;;;;;5036723;28;20045;-60
2023/06/07 02:36:32;;;;;;;17.95;5.28;;;11.30;99.90;;;;;;5035233;28;20107;-60
2023/06/07 02:38:58;;;;;;;17.10;5.35;;;11.30;99.90;;;;;;5031974;28;20064;-58
2023/06/07 02:41:25;;;;;;;16.88;5.03;;;11.30;99.90;;;;;;5036829;28;20025;-60
2023/06/07 02:43:50;;;;;;;15.80;5.03;;;11.30;99.90;;;;;;5041134;28;20064;-59
2023/06/07 02:46:16;;;;;;;17.40;5.20;;;11.30;99.90;;;;;;5036366;28;20033;-58
2023/06/07 02:48:42;;;;;;;19.40;5.00;;;11.30;99.90;;;;;;5034766;28;20045;-58
2023/06/07 02:51:08;;;;;;;15.27;4.47;;;11.30;99.90;;;;;;5034039;28;20048;-59
2023/06/07 02:53:33;;;;;;;19.40;5.43;;;11.40;99.90;;;;;;5033680;28;20111;-59
2023/06/07 02:55:59;;;;;;;24.63;5.00;;;11.40;99.90;;;;;;5031238;28;20033;-59
2023/06/07 02:58:25;;;;;;;16.63;4.70;;;11.40;99.90;;;;;;5035712;28;20044;-60
2023/06/07 03:00:52;;;;;;;15.60;5.47;;;11.40;99.90;;;;;;5034014;28;20493;-59
2023/06/07 03:03:18;;;;;;;16.02;5.40;;;11.40;99.90;;;;;;5034414;28;20045;-58
2023/06/07 03:05:47;;;;;;;16.27;5.18;;;11.40;99.90;;;;;;5025289;28;20489;-59
2023/06/07 03:08:12;;;;;;;16.95;5.40;;;11.40;99.90;;;;;;5037288;28;20053;-59
2023/06/07 03:10:38;;;;;;;16.38;6.05;;;11.40;99.90;;;;;;5037727;28;20049;-60
2023/06/07 03:13:04;;;;;;;22.60;5.75;;;11.40;99.90;;;;;;5034575;28;20485;-60
2023/06/07 03:15:30;;;;;;;20.45;5.32;;;11.40;99.90;;;;;;5035760;28;20044;-60
2023/06/07 03:17:56;;;;;;;13.35;4.57;;;11.40;99.90;;;;;;5037805;28;20043;-60
2023/06/07 03:20:21;;;;;;;15.80;6.13;;;11.40;99.90;;;;;;5037316;28;20170;-59
2023/06/07 03:22:47;;;;;;;20.45;5.60;;;11.40;99.90;;;;;;5037501;28;20049;-59
2023/06/07 03:25:14;;;;;;;13.23;5.40;;;11.40;99.90;;;;;;5035398;28;20055;-60
2023/06/07 03:27:40;;;;;;;20.52;6.22;;;11.50;99.90;;;;;;5040756;28;20033;-60
2023/06/07 03:30:07;;;;;;;20.73;5.53;;;11.50;99.90;;;;;;5035917;28;20458;-59
2023/06/07 03:32:33;;;;;;;18.33;5.07;;;11.50;99.90;;;;;;5039157;28;20037;-60
2023/06/07 03:34:59;;;;;;;16.67;5.47;;;11.50;99.90;;;;;;5035400;28;20048;-57
2023/06/07 03:37:24;;;;;;;22.50;6.03;;;11.50;99.90;;;;;;5038541;28;20045;-60
2023/06/07 03:39:50;;;;;;;13.85;5.30;;;11.50;99.90;;;;;;5038084;28;20029;-59
2023/06/07 03:42:16;;;;;;;18.60;4.90;;;11.50;99.90;;;;;;5037168;28;20044;-60
2023/06/07 03:44:42;;;;;;;16.55;5.30;;;11.50;99.90;;;;;;5035831;28;20035;-59
2023/06/07 03:47:07;;;;;;;17.50;5.47;;;11.60;99.90;;;;;;5037983;28;20034;-60
2023/06/07 03:49:33;;;;;;;17.58;5.93;;;11.60;99.90;;;;;;5039127;28;20048;-60
2023/06/07 03:51:59;;;;;;;16.40;5.13;;;11.60;99.90;;;;;;5038819;28;20036;-59
2023/06/07 03:54:25;;;;;;;18.80;5.88;;;11.60;99.90;;;;;;5034403;28;20036;-60
2023/06/07 03:56:50;;;;;;;13.05;5.15;;;11.70;99.90;;;;;;5035826;28;20049;-60
2023/06/07 03:59:19;;;;;;;16.85;5.07;;;11.70;99.90;;;;;;5036720;28;20056;-60
2023/06/07 04:01:45;;;;;;;14.93;4.78;;;11.70;99.90;;;;;;5037383;28;20152;-60
2023/06/07 04:04:11;;;;;;;23.20;5.47;;;11.70;99.90;;;;;;5037088;28;20382;-58
2023/06/07 04:06:39;;;;;;;10.80;4.60;;;11.70;99.90;;;;;;5019218;28;20087;-60
2023/06/07 04:09:06;;;;;;;17.52;4.57;;;11.80;99.90;;;;;;5036698;28;20049;-58
2023/06/07 04:11:32;;;;;;;16.40;4.95;;;11.80;99.90;;;;;;5036519;28;20423;-60
2023/06/07 04:13:58;;;;;;;15.02;4.85;;;11.80;99.90;;;;;;5038361;28;20042;-59
2023/06/07 04:16:24;;;;;;;14.77;4.60;;;11.80;99.90;;;;;;5034674;28;20470;-59
2023/06/07 04:18:49;;;;;;;23.45;5.53;;;11.90;99.90;;;;;;5037010;28;20044;-60
2023/06/07 04:21:15;;;;;;;13.20;4.45;;;11.90;99.90;;;;;;5019693;28;20457;-60
2023/06/07 04:23:41;;;;;;;22.05;5.00;;;11.90;99.90;;;;;;5037621;28;20044;-59
2023/06/07 04:26:08;;;;;;;14.20;5.03;;;12.00;99.90;;;;;;5037522;28;20607;-59
2023/06/07 04:28:34;;;;;;;17.15;4.75;;;12.00;99.90;;;;;;5039085;28;20496;-57
2023/06/07 04:31:00;;;;;;;15.38;4.53;;;12.00;99.90;;;;;;5049345;28;20103;-60
2023/06/07 04:33:27;;;;;;;17.55;4.55;;;12.00;99.90;;;;;;5032883;28;20136;-59
2023/06/07 04:35:57;;;;;;;13.75;4.47;;;12.10;99.90;;;;;;5036620;28;20128;-60
2023/06/07 04:38:23;;;;;;;18.20;4.38;;;12.10;99.90;;;;;;5032892;28;20532;-60
2023/06/07 04:40:53;;;;;;;13.45;4.85;;;12.10;99.90;;;;;;5047238;28;20059;-60
2023/06/07 04:43:19;;;;;;;15.52;4.80;;;12.10;99.90;;;;;;5033854;28;20036;-59
2023/06/07 04:46:04;;;;;;;16.90;4.32;;;12.10;99.90;;;;;;5035153;28;20091;-59
2023/06/07 04:48:31;;;;;;;10.75;4.13;;;12.20;99.90;;;;;;5033156;28;20050;-60
2023/06/07 04:51:03;;;;;;;15.38;4.30;;;12.20;99.90;;;;;;5037087;28;20044;-59
2023/06/07 04:53:36;;;;;;;17.40;4.00;;;12.20;99.90;;;;;;5036562;28;20164;-59
2023/06/07 04:56:02;;;;;;;10.93;4.53;;;12.30;99.90;;;;;;5039044;28;20083;-60
2023/06/07 04:58:28;;;;;;;12.20;4.35;;;12.30;99.90;;;;;;5035765;28;20080;-57
2023/06/07 05:00:56;;;;;;;15.30;4.50;;;12.30;99.90;;;;;;5033655;28;20088;-59
2023/06/07 05:03:24;;;;;;;12.18;3.95;;;12.40;99.90;;;;;;5035857;28;20834;-60
2023/06/07 05:05:50;;;;;;;11.43;3.97;;;12.40;99.90;;;;;;5024131;28;20077;-59
2023/06/07 05:08:17;;;;;;;14.68;4.70;;;12.40;99.90;;;;;;5030124;28;20037;-58
2023/06/07 05:10:43;;;;;;;15.70;4.55;;;12.40;99.90;;;;;;5035420;28;20525;-59
2023/06/07 05:13:09;;;;;;;13.85;4.10;;;12.50;99.90;;;;;;5029695;28;20049;-60
2023/06/07 05:15:36;;;;;;;12.73;4.78;;;12.50;99.90;;;;;;5032315;28;20059;-59
2023/06/07 05:18:02;;;;;;;12.05;4.13;;;12.50;99.90;;;;;;5033401;28;20041;-58
2023/06/07 05:20:29;;;;;;;13.30;4.47;;;12.50;99.90;;;;;;5032695;28;20053;-59
2023/06/07 05:22:56;;;;;;;16.95;4.18;;;12.50;99.90;;;;;;5030250;28;20104;-59
2023/06/07 05:25:22;;;;;;;12.73;4.05;;;12.60;99.90;;;;;;5030184;28;20127;-59
2023/06/07 05:27:49;;;;;;;15.55;3.97;;;12.60;99.90;;;;;;5032199;28;20033;-60
2023/06/07 05:30:16;;;;;;;11.90;4.25;;;12.70;99.90;;;;;;5033372;28;20056;-58
2023/06/07 05:32:42;;;;;;;13.23;4.53;;;12.70;99.90;;;;;;5031200;28;20047;-60
2023/06/07 05:35:08;;;;;;;13.95;4.35;;;12.80;99.90;;;;;;5029818;28;20069;-59
2023/06/07 05:37:34;;;;;;;13.75;4.00;;;12.80;99.90;;;;;;5033815;28;20037;-59
2023/06/07 05:40:00;;;;;;;16.40;4.47;;;12.80;99.90;;;;;;5034209;28;20122;-58
2023/06/07 05:42:26;;;;;;;12.10;4.10;;;12.80;99.90;;;;;;5031713;28;20029;-59
2023/06/07 05:44:51;;;;;;;14.95;4.07;;;12.90;99.90;;;;;;5032254;28;20148;-59
2023/06/07 05:47:20;;;;;;;12.02;3.95;;;12.80;99.90;;;;;;5031742;28;20565;-59
2023/06/07 05:49:47;;;;;;;12.20;3.83;;;12.90;99.90;;;;;;5030975;28;20047;-59
2023/06/07 05:52:13;;;;;;;19.77;4.45;;;12.90;99.90;;;;;;5031288;28;20033;-58
2023/06/07 05:54:40;;;;;;;13.90;4.10;;;12.90;99.90;;;;;;5033778;28;20494;-59
2023/06/07 05:57:06;;;;;;;17.95;4.05;;;12.90;99.90;;;;;;5032724;28;20072;-59
2023/06/07 05:59:32;;;;;;;17.70;4.68;;;13.00;99.90;;;;;;5033286;28;20120;-60
2023/06/07 06:01:58;;;;;;;18.83;4.55;;;13.00;99.90;;;;;;5039469;28;20041;-59
2023/06/07 06:04:24;;;;;;;16.05;4.30;;;13.10;99.90;;;;;;5038087;28;20035;-59
2023/06/07 06:06:50;;;;;;;12.70;4.10;;;13.20;99.90;;;;;;5028344;28;20092;-58
2023/06/07 06:09:17;;;;;;;15.45;4.95;;;13.20;99.90;;;;;;5024316;28;20040;-58
2023/06/07 06:11:43;;;;;;;11.60;4.20;;;13.30;99.90;;;;;;5030988;28;20049;-64
2023/06/07 06:14:09;;;;;;;14.18;4.60;;;13.40;99.90;;;;;;4996125;28;20127;-64
2023/06/07 06:16:34;;;;;;;14.38;4.95;;;13.40;99.90;;;;;;5036760;28;20037;-64
2023/06/07 06:19:00;;;;;;;11.98;4.00;;;13.40;99.90;;;;;;5037485;28;20543;-63
2023/06/07 06:21:26;;;;;;;14.05;4.53;;;13.50;99.90;;;;;;5021322;28;20509;-64
2023/06/07 06:23:52;;;;;;;14.88;4.70;;;13.50;99.90;;;;;;5037156;28;20068;-64
2023/06/07 06:26:17;;;;;;;11.60;4.38;;;13.50;99.90;;;;;;5037326;28;20042;-64
2023/06/07 06:28:43;;;;;;;13.45;4.50;;;13.60;99.90;;;;;;5020947;28;20045;-64
2023/06/07 06:31:09;;;;;;;11.32;4.10;;;13.60;99.90;;;;;;5024739;28;20111;-64
2023/06/07 06:33:35;;;;;;;13.32;4.13;;;13.80;99.90;;;;;;5023546;28;20043;-64
2023/06/07 06:36:01;;;;;;;14.35;4.00;;;13.70;99.90;;;;;;5040005;28;20126;-64
2023/06/07 06:38:26;;;;;;;15.40;4.15;;;13.70;99.90;;;;;;5038714;28;20073;-63
2023/06/07 06:40:52;;;;;;;16.23;4.80;;;13.70;99.90;;;;;;5036500;28;20038;-64
2023/06/07 06:43:18;;;;;;;12.30;4.00;;;13.70;99.90;;;;;;5023045;28;20476;-63
2023/06/07 06:45:44;;;;;;;11.05;3.80;;;13.70;99.90;;;;;;5037360;28;20052;-64
2023/06/07 06:48:10;;;;;;;16.20;3.90;;;13.70;99.90;;;;;;5040924;28;20037;-63
2023/06/07 06:50:36;;;;;;;9.27;3.65;;;13.70;99.90;;;;;;5037467;28;20520;-64
2023/06/07 06:53:02;;;;;;;10.98;3.75;;;13.80;99.90;;;;;;5038439;28;20063;-63
2023/06/07 06:55:29;;;;;;;10.90;3.28;;;13.80;99.90;;;;;;5038997;28;20124;-64
2023/06/07 06:57:55;;;;;;;9.88;3.60;;;13.80;99.90;;;;;;5036599;28;20040;-64
2023/06/07 07:00:23;;;;;;;10.27;4.13;;;13.80;99.90;;;;;;5023873;28;20037;-63
2023/06/07 07:02:49;;;;;;;15.82;4.45;;;13.90;99.90;;;;;;5039337;28;20132;-64
2023/06/07 07:05:15;;;;;;;13.68;4.38;;;14.00;99.90;;;;;;5038591;28;20040;-63
2023/06/07 07:07:41;;;;;;;11.70;3.85;;;14.00;99.90;;;;;;5037081;28;20037;-64
2023/06/07 07:10:08;;;;;;;14.70;4.30;;;14.00;99.90;;;;;;5037682;28;20045;-64
2023/06/07 07:12:36;;;;;;;13.50;3.75;;;14.00;99.90;;;;;;5045607;28;20044;-64
2023/06/07 07:15:02;;;;;;;13.40;3.45;;;14.10;99.90;;;;;;5036385;28;20137;-64
2023/06/07 07:17:30;;;;;;;10.52;3.80;;;14.20;99.90;;;;;;5037454;28;20124;-63
2023/06/07 07:19:56;;;;;;;14.27;4.10;;;14.40;99.90;;;;;;5037824;28;20057;-64
2023/06/07 07:22:22;;;;;;;12.25;3.78;;;14.50;99.90;;;;;;5022475;28;20104;-64
2023/06/07 07:24:47;;;;;;;12.95;3.30;;;14.50;99.90;;;;;;5021620;28;20453;-64
2023/06/07 07:27:13;;;;;;;7.90;3.58;;;14.60;99.90;;;;;;5037594;28;20496;-64
2023/06/07 07:29:39;;;;;;;12.32;4.15;;;14.70;99.90;;;;;;5036782;28;20045;-64
2023/06/07 07:32:05;;;;;;;15.25;4.10;;;14.90;99.90;;;;;;5003933;28;20083;-64
2023/06/07 07:34:31;;;;;;;11.05;3.55;;;15.20;99.90;;;;;;5019329;28;20040;-64
2023/06/07 07:37:02;;;;;;;10.55;3.53;;;15.50;99.90;;;;;;5020267;28;20072;-64
2023/06/07 07:39:28;;;;;;;11.95;4.32;;;15.70;99.90;;;;;;5036911;28;20406;-64
2023/06/07 07:41:54;;;;;;;16.50;3.88;;;15.90;99.90;;;;;;5036085;28;20048;-64
2023/06/07 07:44:19;;;;;;;12.73;4.32;;;16.00;99.90;;;;;;5036778;28;20460;-64
2023/06/07 07:46:45;;;;;;;13.38;3.60;;;16.10;99.90;;;;;;5036252;28;20033;-64
2023/06/07 07:49:11;;;;;;;17.58;3.72;;;16.20;99.90;;;;;;5023596;28;20045;-64
2023/06/07 07:51:37;;;;;;;16.90;3.78;;;16.30;99.90;;;;;;5038081;28;20075;-64
2023/06/07 07:54:03;;;;;;;12.27;3.88;;;16.30;99.90;;;;;;5002716;28;20141;-64
2023/06/07 07:56:30;;;;;;;11.73;3.20;;;16.40;99.90;;;;;;5044465;28;20390;-64
2023/06/07 07:58:55;;;;;;;16.60;4.20;;;16.50;99.90;;;;;;5020077;28;20048;-64
2023/06/07 08:01:22;;;;;;;13.00;3.85;;;16.50;99.90;;;;;;5035993;28;20037;-64
2023/06/07 08:03:48;;;;;;;12.63;3.67;;;16.60;99.90;;;;;;5036717;28;20065;-64
2023/06/07 08:06:14;;;;;;;10.35;3.30;;;16.70;99.90;;;;;;5036079;28;20095;-64
2023/06/07 08:08:40;;;;;;;11.95;3.67;;;16.80;99.90;;;;;;5020262;28;20084;-64
2023/06/07 08:11:06;;;;;;;13.93;4.13;;;17.00;99.90;;;;;;5036983;28;20080;-64
2023/06/07 08:13:31;;;;;;;12.93;3.70;;;17.00;99.90;;;;;;5037174;28;20045;-64
2023/06/07 08:15:57;;;;;;;14.80;3.55;;;17.00;99.90;;;;;;5020308;28;20060;-64
2023/06/07 08:18:23;;;;;;;11.05;3.47;;;17.00;99.90;;;;;;5006771;28;20417;-64
2023/06/07 08:20:49;;;;;;;7.32;3.30;;;17.10;99.90;;;;;;5035937;28;20057;-64
2023/06/07 08:23:14;;;;;;;14.23;4.22;;;17.20;99.90;;;;;;5000832;28;20696;-64
2023/06/07 08:25:40;;;;;;;12.93;3.60;;;17.30;99.90;;;;;;5036436;28;20502;-64
2023/06/07 08:28:07;;;;;;;12.90;3.83;;;17.40;99.90;;;;;;5034977;28;20080;-64
2023/06/07 08:30:33;;;;;;;11.45;3.90;;;17.50;99.90;;;;;;5044700;28;20045;-64
2023/06/07 08:32:59;;;;;;;11.32;3.70;;;17.50;99.90;;;;;;5035093;28;20095;-64
2023/06/07 08:35:25;;;;;;;16.45;4.32;;;17.50;99.90;;;;;;5034173;28;20812;-64
2023/06/07 08:37:50;;;;;;;13.82;3.97;;;17.50;99.90;;;;;;5036691;28;20098;-64
2023/06/07 08:40:20;;;;;;;13.45;4.53;;;17.50;99.90;;;;;;5043710;28;20041;-64
2023/06/07 08:42:46;;;;;;;11.30;3.80;;;17.50;99.90;;;;;;5019322;28;20042;-64
2023/06/07 08:45:13;;;;;;;13.73;4.10;;;17.50;99.90;;;;;;5036825;28;20432;-64
2023/06/07 08:47:43;;;;;;;13.75;4.53;;;17.60;99.90;;;;;;5034560;28;20041;-64
2023/06/07 08:50:14;;;;;;;12.93;4.78;;;17.70;99.90;;;;;;5019263;28;20049;-65
2023/06/07 08:52:48;;;;;;;14.50;4.60;;;17.60;99.90;;;;;;5035964;28;20525;-64
2023/06/07 08:55:14;;;;;;;14.50;3.78;;;17.70;99.90;;;;;;5035714;28;20103;-64
2023/06/07 08:57:40;;;;;;;11.85;4.13;;;17.70;99.90;;;;;;5036913;28;20048;-64
2023/06/07 09:00:08;;;;;;;13.55;4.55;;;17.70;99.90;;;;;;5036349;28;20041;-64
2023/06/07 09:02:35;;;;;;;14.13;4.93;;;17.80;99.90;;;;;;5018036;28;20072;-64
2023/06/07 09:05:01;;;;;;;13.50;4.60;;;17.90;99.90;;;;;;5037077;28;20413;-65
2023/06/07 09:07:27;;;;;;;15.75;4.65;;;18.00;99.90;;;;;;5034891;28;20429;-64
2023/06/07 09:09:53;;;;;;;18.80;5.22;;;18.00;99.90;;;;;;5052302;28;20037;-65
2023/06/07 09:12:19;;;;;;;16.65;5.65;;;18.10;99.90;;;;;;5036559;28;20041;-64
2023/06/07 09:14:46;;;;;;;13.50;4.53;;;18.10;99.90;;;;;;5017716;28;20082;-65
2023/06/07 09:17:12;;;;;;;15.15;4.82;;;18.10;99.90;;;;;;5034340;28;20075;-65
2023/06/07 09:19:40;;;;;;;16.77;4.50;;;18.20;99.90;;;;;;5051966;28;20088;-65
2023/06/07 09:22:08;;;;;;;11.98;4.63;;;18.40;99.90;;;;;;5036253;28;20398;-63
2023/06/07 09:24:34;;;;;;;12.20;4.20;;;18.50;99.90;;;;;;5037144;28;20474;-65
2023/06/07 09:27:02;;;;;;;11.75;4.13;;;18.50;99.90;;;;;;5017493;28;20036;-65
2023/06/07 09:29:37;;;;;;;12.63;4.60;;;18.60;99.90;;;;;;5020438;28;20083;-65
2023/06/07 09:32:23;;;;;;;11.40;4.97;;;18.60;99.90;;;;;;5036414;28;20045;-65
2023/06/07 09:34:52;;;;;;;13.73;5.38;;;18.60;99.80;;;;;;5022682;28;20405;-63
2023/06/07 09:37:20;;;;;;;16.08;5.03;;;18.70;99.90;;;;;;5046578;28;20125;-65
2023/06/07 09:39:51;;;;;;;14.55;5.57;;;18.80;99.90;;;;;;5042769;28;20409;-63
2023/06/07 09:42:17;;;;;;;12.80;4.90;;;18.90;99.70;;;;;;5040358;28;20067;-63
2023/06/07 09:44:43;;;;;;;12.45;5.22;;;18.90;99.70;;;;;;5039451;28;20051;-65
2023/06/07 09:47:29;;;;;;;13.80;5.00;;;19.10;99.90;;;;;;5022968;28;20119;-65
2023/06/07 09:50:09;;;;;;;18.48;5.25;;;19.20;99.70;;;;;;5040581;28;20532;-65
2023/06/07 09:52:35;;;;;;;16.45;5.10;;;19.20;99.40;;;;;;5022652;28;20045;-64
2023/06/07 09:55:02;;;;;;;12.45;4.90;;;19.10;99.50;;;;;;5024626;28;20128;-65
2023/06/07 09:57:32;;;;;;;11.50;5.13;;;19.20;99.70;;;;;;5038766;28;20059;-65
2023/06/07 10:00:16;;;;;;;12.52;4.93;;;19.30;99.30;;;;;;5022191;28;20266;-65
2023/06/07 10:02:43;;;;;;;14.82;5.18;;;19.40;98.90;;;;;;5030062;28;20112;-65
2023/06/07 10:05:12;;;;;;;11.63;4.75;;;19.30;98.60;;;;;;5038624;28;20103;-65
2023/06/07 10:07:42;;;;;;;11.10;5.05;;;19.40;98.40;;;;;;5029599;28;20090;-65
2023/06/07 10:10:14;;;;;;;11.82;4.72;;;19.30;98.00;;;;;;5028356;28;20478;-65
2023/06/07 10:12:44;;;;;;;14.63;4.90;;;19.30;99.00;;;;;;5039693;28;20045;-65
2023/06/07 10:15:29;;;;;;;12.05;4.85;;;19.40;98.70;;;;;;5039916;28;20123;-65
2023/06/07 10:18:14;;;;;;;11.43;4.80;;;19.40;98.30;;;;;;5027024;28;20144;-65
2023/06/07 10:20:52;;;;;;;17.70;5.57;;;19.40;98.30;;;;;;5038329;28;20054;-65
2023/06/07 10:23:46;;;;;;;16.45;5.70;;;19.50;98.10;;;;;;5046691;28;20041;-65
2023/06/07 10:26:25;;;;;;;13.82;4.38;;;19.60;97.80;;;;;;5023930;28;20049;-65
2023/06/07 10:28:56;;;;;;;12.07;4.35;;;19.60;98.20;;;;;;5038846;28;20036;-65
2023/06/07 10:31:27;;;;;;;13.88;4.97;;;19.90;98.00;;;;;;5037858;28;20034;-65
2023/06/07 10:33:56;;;;;;;12.00;5.00;;;20.00;97.70;;;;;;5038964;28;20041;-65
2023/06/07 10:36:23;;;;;;;12.02;4.75;;;20.10;97.50;;;;;;5055453;28;20036;-65
2023/06/07 10:38:51;;;;;;;15.40;5.85;;;20.20;97.70;;;;;;5038876;28;20187;-65
2023/06/07 10:41:17;;;;;;;13.80;5.28;;;20.40;97.70;;;;;;5025391;28;20401;-65
2023/06/07 10:43:46;;;;;;;15.30;5.75;;;20.60;97.50;;;;;;5038343;28;20037;-65
2023/06/07 10:46:20;;;;;;;14.88;5.32;;;20.70;97.20;;;;;;5045304;28;20037;-65
2023/06/07 10:48:46;;;;;;;25.05;5.07;;;20.70;96.20;;;;;;5024955;28;20044;-65
2023/06/07 10:51:12;;;;;;;12.80;4.97;;;20.60;96.00;;;;;;5037201;28;20650;-66
2023/06/07 10:53:48;;;;;;;11.23;5.05;;;20.60;96.10;;;;;;5037085;28;20143;-65
2023/06/07 10:56:36;;;;;;;12.02;4.22;;;20.70;95.60;;;;;;5044223;28;20083;-66
2023/06/07 10:59:22;;;;;;;12.25;4.35;;;20.70;95.30;;;;;;5045675;28;20087;-65
2023/06/07 11:01:52;;;;;;;8.82;4.10;;;20.80;94.80;;;;;;5036325;28;20500;-65
2023/06/07 11:04:39;;;;;;;13.00;4.07;;;20.70;95.10;;;;;;5037254;28;20576;-65
2023/06/07 11:07:41;;;;;;;20.15;4.63;;;20.80;95.00;;;;;;5036984;28;20375;-65
2023/06/07 11:10:10;;;;;;;16.95;4.40;;;21.00;94.60;;;;;;5026379;28;20068;-65
2023/06/07 11:12:36;;;;;;;23.92;5.35;;;21.10;94.60;;;;;;5039663;28;20044;-65
2023/06/07 11:15:17;;;;;;;12.82;4.43;;;21.10;94.50;;;;;;5017197;28;20087;-60
2023/06/07 11:18:09;;;;;;;13.80;4.40;;;21.20;94.10;;;;;;5033613;28;20088;-58
2023/06/07 11:20:37;;;;;;;12.27;4.43;;;21.20;93.90;;;;;;5036032;28;20048;-58
2023/06/07 11:23:23;;;;;;;10.90;4.50;;;21.30;93.70;;;;;;5035256;28;20295;-58
2023/06/07 11:25:51;;;;;;;9.63;3.83;;;21.50;93.50;;;;;;5037608;28;20049;-59
2023/06/07 11:28:23;;;;;;;14.07;4.15;;;21.60;93.00;;;;;;5039474;28;20041;-56
2023/06/07 11:30:51;;;;;;;14.40;4.22;;;21.70;92.80;;;;;;5039523;28;20045;-58
2023/06/07 11:33:18;;;;;;;9.35;3.88;;;21.60;92.70;;;;;;5037984;28;20030;-58
2023/06/07 11:35:44;;;;;;;11.15;4.10;;;21.60;92.60;;;;;;5037922;28;20041;-59
2023/06/07 11:38:10;;;;;;;14.07;4.50;;;21.70;91.80;;;;;;5038818;28;20103;-58
2023/06/07 11:40:36;;;;;;;10.40;3.95;;;21.70;92.20;;;;;;5033492;28;20867;-58
2023/06/07 11:43:02;;;;;;;12.77;4.10;;;21.80;91.40;;;;;;5035657;28;20041;-58
2023/06/07 11:45:31;;;;;;;15.20;4.10;;;21.80;90.60;;;;;;5037327;28;20104;-59
2023/06/07 11:48:00;;;;;;;8.05;3.70;;;21.70;90.20;;;;;;5037738;28;20040;-59
2023/06/07 11:50:26;;;;;;;11.77;3.75;;;21.70;90.50;;;;;;5039378;28;20033;-58
2023/06/07 11:52:55;;;;;;;15.77;4.57;;;21.80;90.60;;;;;;5034948;28;20045;-59
2023/06/07 11:55:21;;;;;;;12.18;3.67;;;21.90;90.40;;;;;;5036133;28;20037;-59
2023/06/07 11:57:51;;;;;;;12.85;3.70;;;22.10;90.70;;;;;;5036407;28;20453;-58
2023/06/07 12:00:27;;;;;;;13.27;3.75;;;22.30;90.10;;;;;;5035956;28;20037;-59
2023/06/07 12:02:53;;;;;;;15.82;4.07;;;22.30;90.40;;;;;;5035138;28;20088;-57
2023/06/07 12:05:29;;;;;;;15.88;4.18;;;22.40;90.60;;;;;;5037711;28;20115;-59
2023/06/07 12:07:59;;;;;;;11.05;4.15;;;22.50;90.90;;;;;;5037177;28;20045;-59
2023/06/07 12:10:26;;;;;;;12.07;3.97;;;22.70;89.10;;;;;;5039568;28;20378;-58
2023/06/07 12:13:18;;;;;;;9.98;4.00;;;22.70;88.40;;;;;;5037909;28;20045;-59
2023/06/07 12:15:57;;;;;;;13.65;3.95;;;22.70;85.70;;;;;;5036991;28;20044;-59
2023/06/07 12:18:30;;;;;;;11.65;3.80;;;22.70;85.50;;;;;;5036211;28;20049;-58
2023/06/07 12:21:03;;;;;;;8.95;3.75;;;22.70;84.20;;;;;;5036182;28;22874;-58
2023/06/07 12:23:29;;;;;;;7.90;3.60;;;22.80;85.50;;;;;;5036694;28;20077;-58
2023/06/07 12:26:28;;;;;;;10.95;4.00;;;22.80;83.40;;;;;;5035055;28;21065;-58
2023/06/07 12:28:54;;;;;;;12.13;3.88;;;22.80;83.10;;;;;;5039538;28;20183;-58
2023/06/07 12:31:24;;;;;;;14.82;4.35;;;22.70;83.30;;;;;;5036677;28;20548;-58
2023/06/07 12:34:10;;;;;;;14.77;4.70;;;22.90;84.40;;;;;;5034370;28;20045;-57
2023/06/07 12:36:40;;;;;;;11.50;3.95;;;22.90;83.60;;;;;;5030638;28;20057;-58
2023/06/07 12:39:11;;;;;;;13.07;4.00;;;22.90;82.40;;;;;;5035635;28;20402;-57
2023/06/07 12:41:38;;;;;;;14.48;4.47;;;22.90;81.20;;;;;;5034928;28;20557;-58
2023/06/07 12:44:11;;;;;;;11.32;3.42;;;23.00;82.20;;;;;;5033172;28;20493;-58